Time;durP1;ratioP1;P1;durP2;ratioP2;P2;SDS_P1;SDS_P2;PMS_P1;PMS_P2;Temp;Humidity;BMP_temperature;BMP_pressure;BME280_temperature;BME280_humidity;BME280_pressure;Samples;Min_cycle;Max_cycle;Signal;HPM_P1;HPM_P2
2023/04/05 00:01:31;;;;;;;19.88;9.57;;;3.90;34.20;;;;;;5030193;28;20394;-74
2023/04/05 00:03:58;;;;;;;19.17;8.80;;;3.90;34.00;;;;;;5030552;28;20897;-72
2023/04/05 00:06:28;;;;;;;17.02;9.00;;;3.80;34.10;;;;;;5030268;28;20399;-75
2023/04/05 00:08:54;;;;;;;18.20;8.75;;;3.50;34.60;;;;;;5032227;28;20411;-73
2023/04/05 00:11:28;;;;;;;13.57;8.88;;;3.20;37.20;;;;;;5016591;28;20387;-73
2023/04/05 00:13:54;;;;;;;17.77;9.07;;;3.10;38.30;;;;;;5033724;28;20744;-73
2023/04/05 00:16:20;;;;;;;16.90;8.82;;;2.90;39.80;;;;;;5017072;28;20391;-73
2023/04/05 00:18:50;;;;;;;21.10;9.57;;;2.80;40.40;;;;;;5035594;28;20394;-73
2023/04/05 00:21:20;;;;;;;18.02;9.70;;;2.60;41.40;;;;;;5035029;28;20474;-73
2023/04/05 00:23:50;;;;;;;15.27;8.60;;;2.50;43.30;;;;;;5033311;28;20767;-73
2023/04/05 00:26:17;;;;;;;16.73;8.68;;;2.60;44.00;;;;;;5034711;28;20394;-74
2023/04/05 00:28:42;;;;;;;17.90;9.00;;;3.00;41.30;;;;;;5034626;28;20501;-73
2023/04/05 00:31:08;;;;;;;17.90;8.82;;;3.10;39.10;;;;;;5034888;28;20879;-72
2023/04/05 00:33:34;;;;;;;16.52;8.50;;;3.30;37.40;;;;;;5035655;28;20441;-74
2023/04/05 00:36:12;;;;;;;19.23;8.70;;;3.00;38.00;;;;;;5034665;28;20739;-72
2023/04/05 00:38:38;;;;;;;15.88;9.20;;;2.80;40.00;;;;;;5017871;28;20387;-73
2023/04/05 00:41:04;;;;;;;17.17;8.45;;;3.10;39.50;;;;;;5033807;28;20414;-72
2023/04/05 00:43:30;;;;;;;16.23;8.23;;;3.30;37.90;;;;;;5034063;28;20808;-74
2023/04/05 00:45:56;;;;;;;17.20;8.50;;;3.30;37.70;;;;;;5033116;28;20422;-74
2023/04/05 00:48:22;;;;;;;17.27;8.20;;;3.00;39.00;;;;;;5032954;28;20922;-74
2023/04/05 00:50:49;;;;;;;16.10;8.90;;;2.70;41.30;;;;;;5033196;28;20383;-74
2023/04/05 00:53:19;;;;;;;14.77;8.18;;;2.60;43.70;;;;;;5033165;28;20433;-73
2023/04/05 00:55:48;;;;;;;18.65;8.35;;;2.60;43.10;;;;;;5033500;28;20872;-72
2023/04/05 00:58:18;;;;;;;16.30;8.60;;;2.50;44.40;;;;;;5032458;28;20399;-72
2023/04/05 01:01:06;;;;;;;14.20;8.30;;;2.60;44.20;;;;;;5014839;28;20876;-72
2023/04/05 01:03:34;;;;;;;17.63;8.68;;;2.60;43.40;;;;;;5032619;28;20394;-72
2023/04/05 01:06:28;;;;;;;17.25;9.10;;;3.00;40.40;;;;;;5033065;28;20469;-72
2023/04/05 01:09:07;;;;;;;15.82;8.80;;;3.30;38.20;;;;;;5033161;28;20399;-73
2023/04/05 01:11:36;;;;;;;17.27;8.05;;;3.30;37.40;;;;;;5032609;28;20387;-73
2023/04/05 01:14:02;;;;;;;16.42;9.35;;;3.30;37.40;;;;;;5033466;28;20390;-73
2023/04/05 01:16:28;;;;;;;14.20;8.18;;;3.00;38.40;;;;;;5037175;28;20383;-73
2023/04/05 01:18:55;;;;;;;12.95;8.70;;;2.70;40.00;;;;;;5046385;28;20450;-73
2023/04/05 01:21:42;;;;;;;16.75;8.45;;;2.70;40.80;;;;;;5046602;28;20462;-72
2023/04/05 01:24:33;;;;;;;15.75;8.43;;;2.70;40.10;;;;;;5046819;28;20463;-73
2023/04/05 01:27:09;;;;;;;16.25;8.80;;;2.50;41.10;;;;;;5032228;28;20383;-73
2023/04/05 01:29:50;;;;;;;16.92;8.40;;;2.40;42.50;;;;;;5031965;28;20453;-73
2023/04/05 01:32:43;;;;;;;18.23;8.55;;;2.40;43.40;;;;;;5031496;28;20383;-73
2023/04/05 01:35:20;;;;;;;15.50;8.50;;;2.50;44.60;;;;;;5031966;28;20375;-73
2023/04/05 01:37:51;;;;;;;18.25;7.82;;;2.80;42.10;;;;;;5031954;28;20375;-73
2023/04/05 01:40:18;;;;;;;22.37;9.70;;;2.90;40.90;;;;;;5031848;28;20561;-73
2023/04/05 01:42:45;;;;;;;20.77;9.60;;;3.00;39.80;;;;;;5031469;28;20393;-73
2023/04/05 01:45:11;;;;;;;16.70;8.52;;;3.10;38.80;;;;;;5033265;28;20425;-74
2023/04/05 01:47:36;;;;;;;19.08;9.27;;;3.10;38.70;;;;;;5014914;28;20423;-73
2023/04/05 01:50:02;;;;;;;13.50;8.15;;;3.10;39.20;;;;;;5031601;28;20407;-73
2023/04/05 01:52:27;;;;;;;16.33;8.07;;;3.20;38.80;;;;;;5031407;28;20899;-72
2023/04/05 01:54:53;;;;;;;18.03;8.20;;;3.20;38.20;;;;;;5031732;28;20388;-72
2023/04/05 01:57:19;;;;;;;14.10;8.47;;;3.10;38.70;;;;;;5031767;28;20375;-73
2023/04/05 01:59:44;;;;;;;16.10;8.13;;;2.80;39.70;;;;;;5031802;28;20390;-73
2023/04/05 02:02:10;;;;;;;16.20;8.13;;;2.70;41.20;;;;;;5013730;28;20422;-73
2023/04/05 02:04:35;;;;;;;16.60;8.38;;;2.60;42.40;;;;;;5031576;28;20852;-73
2023/04/05 02:07:02;;;;;;;11.93;7.47;;;2.70;40.60;;;;;;5031538;28;20449;-73
2023/04/05 02:09:28;;;;;;;15.52;8.38;;;2.90;39.80;;;;;;5031406;28;20403;-73
2023/04/05 02:11:53;;;;;;;15.23;8.30;;;3.20;38.90;;;;;;5034553;28;20462;-73
2023/04/05 02:14:19;;;;;;;13.67;8.50;;;3.00;39.60;;;;;;5037439;28;20879;-73
2023/04/05 02:16:44;;;;;;;14.43;8.53;;;3.00;39.10;;;;;;5038872;28;20393;-73
2023/04/05 02:19:12;;;;;;;12.43;7.90;;;2.70;40.80;;;;;;5044035;28;20444;-73
2023/04/05 02:21:37;;;;;;;17.55;8.57;;;2.70;41.50;;;;;;5044156;28;20395;-73
2023/04/05 02:24:03;;;;;;;16.30;8.40;;;2.60;42.60;;;;;;5041580;28;20413;-73
2023/04/05 02:26:29;;;;;;;15.10;8.27;;;2.70;42.90;;;;;;5032370;28;20860;-73
2023/04/05 02:28:55;;;;;;;15.45;8.70;;;2.70;42.30;;;;;;5031774;28;20415;-73
2023/04/05 02:31:20;;;;;;;17.63;8.73;;;2.90;41.30;;;;;;5030572;28;20999;-73
2023/04/05 02:33:47;;;;;;;16.07;8.43;;;2.90;40.70;;;;;;5031274;28;20898;-73
2023/04/05 02:36:13;;;;;;;21.05;9.30;;;3.00;39.80;;;;;;5030993;28;20383;-73
2023/04/05 02:38:38;;;;;;;22.70;9.63;;;2.90;39.60;;;;;;5031535;28;20389;-73
2023/04/05 02:41:08;;;;;;;17.30;8.60;;;2.90;40.40;;;;;;5030785;28;20387;-73
2023/04/05 02:43:34;;;;;;;16.60;9.18;;;2.60;41.50;;;;;;5030904;28;20831;-73
2023/04/05 02:46:00;;;;;;;18.35;9.10;;;2.30;43.80;;;;;;5013442;28;20426;-72
2023/04/05 02:48:25;;;;;;;16.73;8.57;;;2.40;45.10;;;;;;5031071;28;20407;-73
2023/04/05 02:50:51;;;;;;;17.70;8.37;;;2.60;44.20;;;;;;5013301;28;20383;-73
2023/04/05 02:53:17;;;;;;;17.60;9.13;;;2.70;41.60;;;;;;5031019;28;20387;-73
2023/04/05 02:55:52;;;;;;;19.13;9.43;;;2.40;42.70;;;;;;5031009;28;20470;-73
2023/04/05 02:58:17;;;;;;;22.70;9.83;;;2.50;44.90;;;;;;5030973;28;20379;-73
2023/04/05 03:00:50;;;;;;;18.63;9.65;;;2.20;45.40;;;;;;5030826;28;20510;-73
2023/04/05 03:03:19;;;;;;;18.80;9.80;;;2.20;46.60;;;;;;5030642;28;20458;-73
2023/04/05 03:05:46;;;;;;;17.65;9.50;;;2.00;47.90;;;;;;5030722;28;20386;-72
2023/04/05 03:08:22;;;;;;;19.48;10.00;;;2.00;48.40;;;;;;5030477;28;20390;-72
2023/04/05 03:10:50;;;;;;;16.58;9.02;;;2.00;49.00;;;;;;5030596;28;20388;-73
2023/04/05 03:13:16;;;;;;;20.45;9.40;;;2.00;48.70;;;;;;5030572;28;20386;-73
2023/04/05 03:15:42;;;;;;;17.80;9.30;;;2.00;48.10;;;;;;5030562;28;20748;-72
2023/04/05 03:18:08;;;;;;;20.27;9.17;;;1.80;49.10;;;;;;5030760;28;20375;-73
2023/04/05 03:20:38;;;;;;;21.23;9.95;;;1.70;50.80;;;;;;5013427;28;20383;-73
2023/04/05 03:23:07;;;;;;;16.23;8.68;;;1.60;51.70;;;;;;5030859;28;20395;-74
2023/04/05 03:25:36;;;;;;;18.00;9.30;;;1.70;51.60;;;;;;5030398;28;20411;-75
2023/04/05 03:28:05;;;;;;;16.52;8.23;;;1.60;52.50;;;;;;5030239;28;20383;-74
2023/04/05 03:30:32;;;;;;;16.10;8.97;;;1.50;54.00;;;;;;5030584;28;20468;-74
2023/04/05 03:33:00;;;;;;;16.65;9.60;;;1.50;56.00;;;;;;5030312;28;20389;-72
2023/04/05 03:35:26;;;;;;;16.33;8.75;;;1.50;57.70;;;;;;5012985;28;20391;-74
2023/04/05 03:37:52;;;;;;;14.35;9.20;;;1.40;58.40;;;;;;5031089;28;20740;-74
2023/04/05 03:40:18;;;;;;;18.13;8.82;;;1.30;59.50;;;;;;5030547;28;20387;-74
2023/04/05 03:42:44;;;;;;;18.30;9.65;;;1.30;60.30;;;;;;5029984;28;20871;-73
2023/04/05 03:45:10;;;;;;;17.20;9.38;;;1.20;61.50;;;;;;5033667;28;20379;-73
2023/04/05 03:47:36;;;;;;;20.50;9.50;;;1.20;62.10;;;;;;5034260;28;20748;-74
2023/04/05 03:50:02;;;;;;;19.00;10.38;;;1.20;62.50;;;;;;5033970;28;20406;-73
2023/04/05 03:52:28;;;;;;;17.35;9.60;;;1.20;62.40;;;;;;5033921;28;20394;-73
2023/04/05 03:54:53;;;;;;;18.98;10.10;;;1.30;62.20;;;;;;5034197;28;20875;-73
2023/04/05 03:57:19;;;;;;;17.00;9.90;;;1.30;61.80;;;;;;5034177;28;20410;-73
2023/04/05 03:59:45;;;;;;;18.87;9.70;;;1.30;62.60;;;;;;5034895;28;20419;-73
2023/04/05 04:02:10;;;;;;;18.45;9.60;;;1.20;63.70;;;;;;5037087;28;20391;-73
2023/04/05 04:04:36;;;;;;;15.27;9.65;;;1.20;64.30;;;;;;5039769;28;20414;-73
2023/04/05 04:07:01;;;;;;;14.02;8.70;;;1.20;64.80;;;;;;5041191;28;20736;-74
2023/04/05 04:09:28;;;;;;;17.42;8.70;;;1.10;65.00;;;;;;5040636;28;20775;-74
2023/04/05 04:11:55;;;;;;;16.63;8.13;;;1.00;64.50;;;;;;5037189;28;20435;-73
2023/04/05 04:14:21;;;;;;;19.98;9.18;;;1.00;64.10;;;;;;5037168;28;20894;-74
2023/04/05 04:16:47;;;;;;;15.88;9.20;;;1.10;64.80;;;;;;5038781;28;20395;-74
2023/04/05 04:19:12;;;;;;;18.83;9.30;;;1.10;64.60;;;;;;5035159;28;20394;-73
2023/04/05 04:21:38;;;;;;;18.90;8.80;;;1.10;64.80;;;;;;5034152;28;20441;-74
2023/04/05 04:24:04;;;;;;;18.43;9.30;;;1.00;65.00;;;;;;5036051;28;20449;-74
2023/04/05 04:26:36;;;;;;;17.30;9.50;;;1.00;65.20;;;;;;5033316;28;20383;-74
2023/04/05 04:29:02;;;;;;;17.95;9.23;;;1.00;65.80;;;;;;5033723;28;20414;-74
2023/04/05 04:31:28;;;;;;;17.52;9.85;;;1.00;66.30;;;;;;5033806;28;20426;-74
2023/04/05 04:33:54;;;;;;;19.80;9.20;;;1.00;66.70;;;;;;5033460;28;20411;-74
2023/04/05 04:36:25;;;;;;;17.45;9.63;;;1.00;66.80;;;;;;5033033;28;20834;-73
2023/04/05 04:38:52;;;;;;;17.48;9.07;;;0.90;68.10;;;;;;5033231;28;20432;-73
2023/04/05 04:41:19;;;;;;;15.90;8.52;;;0.90;68.20;;;;;;5033021;28;20400;-73
2023/04/05 04:43:44;;;;;;;16.60;9.25;;;0.80;68.50;;;;;;5033264;28;20390;-74
2023/04/05 04:46:13;;;;;;;16.45;8.70;;;0.80;68.40;;;;;;5033099;28;20387;-73
2023/04/05 04:48:41;;;;;;;13.10;8.90;;;0.80;68.50;;;;;;5032959;28;20391;-74
2023/04/05 04:51:06;;;;;;;14.20;8.67;;;0.80;68.70;;;;;;5032824;28;20417;-73
2023/04/05 04:53:32;;;;;;;17.30;9.15;;;0.80;68.60;;;;;;5032934;28;20990;-72
2023/04/05 04:55:57;;;;;;;19.40;9.13;;;0.80;69.30;;;;;;5032722;28;20390;-73
2023/04/05 04:58:23;;;;;;;14.97;8.67;;;1.00;66.80;;;;;;5032955;28;20441;-74
2023/04/05 05:00:51;;;;;;;18.47;8.80;;;0.90;66.10;;;;;;5032857;28;20437;-73
2023/04/05 05:03:17;;;;;;;19.40;9.60;;;0.90;66.90;;;;;;5032585;28;20391;-73
2023/04/05 05:05:44;;;;;;;23.02;11.30;;;1.00;66.60;;;;;;5032513;28;20441;-73
2023/04/05 05:08:10;;;;;;;25.10;11.10;;;1.10;66.70;;;;;;5032386;28;20444;-74
2023/04/05 05:10:35;;;;;;;23.17;10.20;;;1.20;65.30;;;;;;5033219;28;20379;-74
2023/04/05 05:13:01;;;;;;;25.60;10.20;;;1.20;64.00;;;;;;5033583;28;20437;-73
2023/04/05 05:15:27;;;;;;;18.38;9.05;;;1.30;64.00;;;;;;5032732;28;20392;-73
2023/04/05 05:17:54;;;;;;;19.77;10.00;;;1.20;63.30;;;;;;5033512;28;20937;-74
2023/04/05 05:20:20;;;;;;;19.02;9.77;;;1.20;63.60;;;;;;5016556;28;20387;-75
2023/04/05 05:22:45;;;;;;;17.17;9.48;;;1.10;64.60;;;;;;5034307;28;20391;-74
2023/04/05 05:25:13;;;;;;;22.27;9.35;;;1.00;65.70;;;;;;5016768;28;22250;-74
2023/04/05 05:27:38;;;;;;;18.63;8.95;;;1.10;67.60;;;;;;5033783;28;20391;-73
2023/04/05 05:30:05;;;;;;;17.43;9.17;;;1.20;65.40;;;;;;5032469;28;20407;-73
2023/04/05 05:32:30;;;;;;;15.63;8.98;;;1.10;66.10;;;;;;5032118;28;20390;-73
2023/04/05 05:34:56;;;;;;;18.52;9.60;;;1.10;66.80;;;;;;5032460;28;20383;-73
2023/04/05 05:37:28;;;;;;;20.73;9.30;;;1.10;66.40;;;;;;5032363;28;20466;-74
2023/04/05 05:39:54;;;;;;;21.02;9.55;;;1.20;65.40;;;;;;5032351;28;20393;-73
2023/04/05 05:42:20;;;;;;;20.13;9.60;;;1.20;64.80;;;;;;5032544;28;20859;-74
2023/04/05 05:44:46;;;;;;;18.73;9.52;;;1.30;65.70;;;;;;5032642;28;20394;-75
2023/04/05 05:47:11;;;;;;;22.83;9.50;;;1.40;61.40;;;;;;5031963;28;20430;-73
2023/04/05 05:49:37;;;;;;;20.42;9.00;;;1.40;59.80;;;;;;5015179;28;20845;-74
2023/04/05 05:52:03;;;;;;;23.30;9.27;;;1.40;57.60;;;;;;5015057;28;20994;-74
2023/04/05 05:54:28;;;;;;;27.80;9.20;;;1.50;56.80;;;;;;5032033;28;20529;-74
2023/04/05 05:56:54;;;;;;;25.10;9.30;;;1.50;55.70;;;;;;5032208;28;20466;-74
2023/04/05 05:59:19;;;;;;;23.20;9.27;;;1.60;53.90;;;;;;5032106;28;20403;-74
2023/04/05 06:01:45;;;;;;;21.63;10.38;;;1.70;52.70;;;;;;5031828;28;20386;-74
2023/04/05 06:04:11;;;;;;;18.80;9.93;;;1.80;51.20;;;;;;5014057;28;20402;-74
2023/04/05 06:06:37;;;;;;;19.23;9.20;;;2.00;50.00;;;;;;5013748;28;20516;-75
2023/04/05 06:09:03;;;;;;;20.17;9.40;;;2.00;50.20;;;;;;5032455;28;20403;-74
2023/04/05 06:11:29;;;;;;;20.42;9.38;;;2.30;48.40;;;;;;5032161;28;20864;-73
2023/04/05 06:13:54;;;;;;;20.17;9.95;;;2.30;48.70;;;;;;5031865;28;20379;-73
2023/04/05 06:16:20;;;;;;;17.63;9.00;;;2.70;48.50;;;;;;5014601;28;20852;-73
2023/04/05 06:18:46;;;;;;;18.35;9.43;;;2.80;46.40;;;;;;5031832;28;20387;-74
2023/04/05 06:21:12;;;;;;;16.52;9.48;;;2.90;45.60;;;;;;5031494;28;20496;-74
2023/04/05 06:23:39;;;;;;;18.17;9.10;;;2.90;45.70;;;;;;5031009;28;20407;-74
2023/04/05 06:26:05;;;;;;;15.50;9.60;;;3.10;44.50;;;;;;5030985;28;20391;-74
2023/04/05 06:28:31;;;;;;;25.85;10.48;;;3.30;43.20;;;;;;5013465;28;20407;-73
2023/04/05 06:30:58;;;;;;;20.40;10.00;;;3.40;41.60;;;;;;5030129;28;20403;-73
2023/04/05 06:33:24;;;;;;;21.98;9.60;;;3.50;41.40;;;;;;5031295;28;20456;-73
2023/04/05 06:35:49;;;;;;;19.27;9.40;;;3.50;41.30;;;;;;5034808;28;20394;-74
2023/04/05 06:38:15;;;;;;;20.20;9.60;;;3.60;41.00;;;;;;5039569;28;20375;-74
2023/04/05 06:40:40;;;;;;;17.97;9.17;;;3.80;39.70;;;;;;5046779;28;20838;-74
2023/04/05 06:43:06;;;;;;;19.43;9.23;;;4.10;37.40;;;;;;5045432;28;20395;-72
2023/04/05 06:45:32;;;;;;;17.60;8.40;;;4.50;33.10;;;;;;5047000;28;20387;-73
2023/04/05 06:47:57;;;;;;;16.70;8.63;;;4.70;36.20;;;;;;5034678;28;20431;-74
2023/04/05 06:50:23;;;;;;;15.07;8.67;;;4.60;32.80;;;;;;5014268;28;20406;-73
2023/04/05 06:52:49;;;;;;;12.33;7.60;;;4.70;32.40;;;;;;5031630;28;20383;-73
2023/04/05 06:55:15;;;;;;;11.13;6.90;;;4.80;27.70;;;;;;5031841;28;20386;-73
2023/04/05 06:57:40;;;;;;;13.05;7.30;;;4.90;27.10;;;;;;5032573;28;20387;-73
2023/04/05 07:00:10;;;;;;;9.05;6.75;;;4.90;26.50;;;;;;5032389;28;20428;-73
2023/04/05 07:02:36;;;;;;;12.20;7.17;;;4.90;25.70;;;;;;5033507;28;20497;-74
2023/04/05 07:05:04;;;;;;;11.55;6.68;;;5.10;26.00;;;;;;5035189;28;20406;-73
2023/04/05 07:07:37;;;;;;;9.90;6.40;;;5.20;26.80;;;;;;5034230;28;20387;-73
2023/04/05 07:10:03;;;;;;;13.13;7.13;;;5.30;24.20;;;;;;5020466;28;20535;-73
2023/04/05 07:12:29;;;;;;;19.60;8.00;;;5.40;24.60;;;;;;5018710;28;20400;-74
2023/04/05 07:14:54;;;;;;;10.40;6.60;;;5.50;23.90;;;;;;5014925;28;20438;-72
2023/04/05 07:17:20;;;;;;;9.77;6.70;;;5.70;22.20;;;;;;5031326;28;20395;-73
2023/04/05 07:19:46;;;;;;;17.98;8.10;;;5.70;22.90;;;;;;5018613;28;20414;-72
2023/04/05 07:22:11;;;;;;;16.33;8.23;;;5.70;25.00;;;;;;5034919;28;20386;-73
2023/04/05 07:24:37;;;;;;;16.87;7.23;;;6.00;24.90;;;;;;5035335;28;20399;-74
2023/04/05 07:27:03;;;;;;;18.53;8.07;;;6.20;22.80;;;;;;5037291;28;20389;-74
2023/04/05 07:29:28;;;;;;;17.70;8.27;;;6.10;21.20;;;;;;5036546;28;20450;-74
2023/04/05 07:31:54;;;;;;;11.00;7.33;;;6.10;21.60;;;;;;5036999;28;20406;-71
2023/04/05 07:34:19;;;;;;;13.40;7.70;;;6.20;21.80;;;;;;5036003;28;20383;-74
2023/04/05 07:36:45;;;;;;;17.30;7.67;;;6.30;22.10;;;;;;5030774;28;20536;-73
2023/04/05 07:39:11;;;;;;;12.60;7.10;;;6.50;23.70;;;;;;5017986;28;20388;-73
2023/04/05 07:41:37;;;;;;;11.95;7.50;;;6.50;21.10;;;;;;5015555;28;20396;-74
2023/04/05 07:44:02;;;;;;;17.33;9.90;;;6.40;20.40;;;;;;5031580;28;20407;-75
2023/04/05 07:46:28;;;;;;;11.40;7.30;;;6.50;21.30;;;;;;5034933;28;20457;-74
2023/04/05 07:48:54;;;;;;;9.73;7.00;;;6.60;21.40;;;;;;5035956;28;20402;-72
2023/04/05 07:51:20;;;;;;;13.95;7.60;;;6.90;20.80;;;;;;5035318;28;20831;-73
2023/04/05 07:53:45;;;;;;;11.67;6.90;;;6.80;19.90;;;;;;5036480;28;20379;-73
2023/04/05 07:56:13;;;;;;;15.90;7.30;;;6.90;20.30;;;;;;5019849;28;20391;-74
2023/04/05 07:58:40;;;;;;;12.90;7.20;;;7.00;19.60;;;;;;5026208;28;20448;-75
2023/04/05 08:01:07;;;;;;;9.80;6.80;;;7.00;19.60;;;;;;5015590;28;20399;-74
2023/04/05 08:03:34;;;;;;;13.13;7.45;;;7.20;19.80;;;;;;5023489;28;20495;-74
2023/04/05 08:06:12;;;;;;;15.65;7.30;;;7.20;18.80;;;;;;5033627;28;20474;-74
2023/04/05 08:08:39;;;;;;;15.25;8.50;;;7.40;19.10;;;;;;5033693;28;20539;-74
2023/04/05 08:11:05;;;;;;;12.97;7.20;;;7.50;18.30;;;;;;5033196;28;20876;-74
2023/04/05 08:13:32;;;;;;;11.57;7.30;;;7.50;17.50;;;;;;5033865;28;20510;-74
2023/04/05 08:15:59;;;;;;;14.80;6.95;;;7.50;18.00;;;;;;5034529;28;20406;-74
2023/04/05 08:18:25;;;;;;;14.75;6.90;;;7.60;18.90;;;;;;5035896;28;20398;-74
2023/04/05 08:20:55;;;;;;;9.00;6.70;;;7.70;17.70;;;;;;5037536;28;20402;-73
2023/04/05 08:23:21;;;;;;;13.50;7.05;;;7.80;17.40;;;;;;5034698;28;20399;-72
2023/04/05 08:25:46;;;;;;;14.27;7.93;;;7.80;17.50;;;;;;5033589;28;20425;-74
2023/04/05 08:28:12;;;;;;;14.90;7.82;;;7.90;17.60;;;;;;5033565;28;20387;-74
2023/04/05 08:30:38;;;;;;;14.90;7.90;;;8.10;16.30;;;;;;5029032;28;20399;-74
2023/04/05 08:33:05;;;;;;;16.45;7.57;;;8.00;15.90;;;;;;5032091;28;20405;-75
2023/04/05 08:35:32;;;;;;;13.75;7.90;;;8.00;15.20;;;;;;5033150;28;20387;-73
2023/04/05 08:37:57;;;;;;;13.85;6.68;;;7.80;15.00;;;;;;5033300;28;20782;-75
2023/04/05 08:40:42;;;;;;;11.80;6.80;;;7.70;15.10;;;;;;5020426;28;20784;-74
2023/04/05 08:43:17;;;;;;;10.50;6.70;;;8.20;14.60;;;;;;5022730;28;20660;-75
2023/04/05 08:45:52;;;;;;;13.40;7.38;;;8.20;14.60;;;;;;5035094;28;20778;-74
2023/04/05 08:48:19;;;;;;;13.82;7.50;;;8.10;15.00;;;;;;5035026;28;20409;-74
2023/04/05 08:50:52;;;;;;;10.93;7.00;;;7.90;14.90;;;;;;5033994;28;20395;-73
2023/04/05 08:53:18;;;;;;;12.40;7.30;;;8.00;15.10;;;;;;5035057;28;20455;-75
2023/04/05 08:55:48;;;;;;;11.70;7.60;;;8.10;15.30;;;;;;5036522;28;20398;-75
2023/04/05 08:58:15;;;;;;;13.60;7.10;;;8.20;15.70;;;;;;5033166;28;20402;-74
2023/04/05 09:00:41;;;;;;;59.58;11.38;;;8.50;14.40;;;;;;5033821;28;20387;-75
2023/04/05 09:03:15;;;;;;;12.32;7.72;;;8.40;14.00;;;;;;5032898;28;20379;-76
2023/04/05 09:05:45;;;;;;;13.15;7.93;;;8.40;14.10;;;;;;5032967;28;20379;-72
2023/04/05 09:08:11;;;;;;;13.13;7.10;;;8.50;15.40;;;;;;5033112;28;20486;-74
2023/04/05 09:10:37;;;;;;;11.30;7.55;;;8.70;14.60;;;;;;5035061;28;20405;-74
2023/04/05 09:13:03;;;;;;;10.13;7.55;;;8.90;14.60;;;;;;5034127;28;20383;-74
2023/04/05 09:15:29;;;;;;;11.70;7.30;;;8.80;13.60;;;;;;5034212;28;20932;-74
2023/04/05 09:17:55;;;;;;;10.77;7.10;;;8.70;13.70;;;;;;5032424;28;20391;-74
2023/04/05 09:20:21;;;;;;;11.95;7.20;;;8.90;12.80;;;;;;5033035;28;20768;-73
2023/04/05 09:25:42;;;;;;;10.25;7.38;;;8.80;12.80;;;;;;5011506;28;20432;-71
2023/04/05 09:28:09;;;;;;;16.52;7.60;;;8.80;13.30;;;;;;5016760;28;20377;-71
2023/04/05 09:30:36;;;;;;;11.93;7.80;;;9.00;12.40;;;;;;5008461;28;20959;-73
2023/04/05 09:33:03;;;;;;;11.43;7.78;;;9.00;12.90;;;;;;5005695;28;20884;-72
2023/04/05 09:35:32;;;;;;;13.15;7.43;;;9.10;12.40;;;;;;5012909;28;20499;-71
2023/04/05 09:37:59;;;;;;;11.57;7.40;;;9.10;12.40;;;;;;4993133;28;20398;-71
2023/04/05 09:40:46;;;;;;;15.83;8.00;;;9.20;12.80;;;;;;4993234;28;20963;-72
2023/04/05 09:43:13;;;;;;;16.75;8.30;;;9.30;11.90;;;;;;4992728;28;20393;-72
2023/04/05 09:45:41;;;;;;;11.32;7.65;;;9.30;12.00;;;;;;4993637;28;20387;-72
2023/04/05 09:48:08;;;;;;;11.30;7.20;;;9.20;11.50;;;;;;4999491;28;20956;-72
2023/04/05 09:50:34;;;;;;;13.55;8.57;;;9.40;11.50;;;;;;5031249;28;20747;-72
2023/04/05 09:53:08;;;;;;;13.35;8.10;;;9.50;12.20;;;;;;5032774;28;20406;-72
2023/04/05 09:55:34;;;;;;;12.05;7.43;;;9.60;12.10;;;;;;5032250;28;20375;-73
2023/04/05 09:58:00;;;;;;;11.38;7.43;;;9.70;12.10;;;;;;5032495;28;20962;-71
2023/04/05 10:00:30;;;;;;;11.50;7.55;;;9.80;11.00;;;;;;5032895;28;20379;-72
2023/04/05 10:02:55;;;;;;;12.00;7.07;;;9.90;11.10;;;;;;5031865;28;20449;-72
2023/04/05 10:05:26;;;;;;;17.03;8.10;;;10.00;10.00;;;;;;5031739;28;20387;-72
2023/04/05 10:07:53;;;;;;;10.48;7.07;;;10.20;9.70;;;;;;5015430;28;20890;-74
2023/04/05 10:10:21;;;;;;;15.77;8.07;;;10.40;9.50;;;;;;5012682;28;20464;-74
2023/04/05 10:12:48;;;;;;;12.13;7.47;;;10.40;8.80;;;;;;5011665;28;20583;-74
2023/04/05 10:15:14;;;;;;;13.70;8.35;;;10.30;9.60;;;;;;5012776;28;20403;-74
2023/04/05 10:17:50;;;;;;;13.30;9.05;;;10.20;9.50;;;;;;5013453;28;20393;-77
2023/04/05 10:20:21;;;;;;;12.82;8.50;;;10.20;10.20;;;;;;5011946;28;20400;-75
2023/04/05 10:23:06;;;;;;;14.00;8.25;;;10.30;9.90;;;;;;5020893;28;20397;-74
2023/04/05 10:25:50;;;;;;;13.73;8.05;;;10.50;10.50;;;;;;5011078;28;20501;-73
2023/04/05 10:28:24;;;;;;;17.38;9.07;;;10.70;8.80;;;;;;4992533;28;20492;-73
2023/04/05 10:30:53;;;;;;;13.23;8.45;;;10.70;8.00;;;;;;4993004;28;20402;-74
2023/04/05 10:33:33;;;;;;;14.27;9.05;;;10.50;8.40;;;;;;4992678;28;20382;-74
2023/04/05 10:36:08;;;;;;;15.50;8.90;;;10.50;9.20;;;;;;5009320;28;20761;-72
2023/04/05 10:38:59;;;;;;;14.97;8.37;;;10.40;8.30;;;;;;5013434;28;20463;-74
2023/04/05 10:41:25;;;;;;;16.58;9.30;;;10.40;8.10;;;;;;5012878;28;20412;-74
2023/04/05 10:43:52;;;;;;;14.07;8.50;;;10.30;8.30;;;;;;5012349;28;20413;-71
2023/04/05 10:46:19;;;;;;;17.33;8.70;;;10.40;8.40;;;;;;5012694;28;20464;-71
2023/04/05 10:49:04;;;;;;;20.73;9.77;;;10.50;8.80;;;;;;5011909;28;20401;-72
2023/04/05 10:51:30;;;;;;;15.07;8.57;;;10.80;10.50;;;;;;5012985;28;20388;-71
2023/04/05 10:53:56;;;;;;;22.20;9.20;;;11.00;9.80;;;;;;5013543;28;20397;-72
2023/04/05 10:56:23;;;;;;;10.85;8.23;;;11.10;8.60;;;;;;5017364;28;20408;-71
2023/04/05 10:58:51;;;;;;;12.55;8.98;;;10.90;7.20;;;;;;5022750;28;20484;-70
2023/04/05 11:01:17;;;;;;;17.48;8.23;;;10.80;7.70;;;;;;5019270;28;20389;-71
2023/04/05 11:03:53;;;;;;;16.08;9.90;;;10.80;7.90;;;;;;5012645;28;20743;-71
2023/04/05 11:06:32;;;;;;;14.70;9.50;;;10.80;8.90;;;;;;5014551;28;20498;-71
2023/04/05 11:09:11;;;;;;;11.73;8.88;;;11.00;7.80;;;;;;5021448;28;20409;-71
2023/04/05 11:11:45;;;;;;;19.02;10.18;;;11.00;7.60;;;;;;5022833;28;20388;-69
2023/04/05 11:14:22;;;;;;;17.55;9.90;;;11.30;7.70;;;;;;5017562;28;20949;-73
2023/04/05 11:16:53;;;;;;;12.10;8.90;;;11.50;7.70;;;;;;5013401;28;20858;-72
2023/04/05 11:19:19;;;;;;;15.88;9.00;;;11.50;8.00;;;;;;5012968;28;20523;-71
2023/04/05 11:21:45;;;;;;;11.80;8.60;;;10.90;8.30;;;;;;5013536;28;20389;-73
2023/04/05 11:24:14;;;;;;;17.03;9.20;;;10.60;8.90;;;;;;5013102;28;20447;-72
2023/04/05 11:26:39;;;;;;;16.05;9.07;;;10.60;9.20;;;;;;5012780;28;20427;-72
2023/04/05 11:29:09;;;;;;;16.00;9.00;;;10.70;9.00;;;;;;5012037;28;20881;-72
2023/04/05 11:31:35;;;;;;;15.13;8.87;;;10.80;8.50;;;;;;5024867;28;20392;-72
2023/04/05 11:34:11;;;;;;;14.35;8.80;;;10.70;8.00;;;;;;5021582;28;20522;-71
2023/04/05 11:36:46;;;;;;;14.63;8.77;;;10.80;8.50;;;;;;5023238;28;20453;-72
2023/04/05 11:39:21;;;;;;;17.58;10.07;;;10.80;8.00;;;;;;5026172;28;20400;-71
2023/04/05 11:42:05;;;;;;;14.32;8.30;;;10.80;8.20;;;;;;5012147;28;20389;-72
2023/04/05 11:44:48;;;;;;;12.68;8.70;;;10.90;7.90;;;;;;5011327;28;20439;-70
2023/04/05 11:47:20;;;;;;;13.27;8.95;;;10.80;7.50;;;;;;5011453;28;20858;-71
2023/04/05 11:49:49;;;;;;;15.43;9.95;;;10.80;6.90;;;;;;5012210;28;20436;-72
2023/04/05 11:52:18;;;;;;;13.55;8.60;;;10.80;8.50;;;;;;5023513;28;20777;-72
2023/04/05 11:54:48;;;;;;;17.13;9.60;;;11.10;7.30;;;;;;5026594;28;20923;-73
2023/04/05 11:57:22;;;;;;;17.90;8.07;;;11.00;7.00;;;;;;5023311;28;20439;-72
2023/04/05 11:59:52;;;;;;;13.73;8.82;;;11.00;6.80;;;;;;5022727;28;20431;-71
2023/04/05 12:02:19;;;;;;;15.85;8.88;;;11.00;6.80;;;;;;5025499;28;20384;-71
2023/04/05 12:04:54;;;;;;;15.20;8.43;;;10.90;7.40;;;;;;5027925;28;20393;-72
2023/04/05 12:07:19;;;;;;;10.82;7.85;;;10.70;5.70;;;;;;5027588;28;20395;-73
2023/04/05 12:10:12;;;;;;;13.63;8.15;;;10.60;6.20;;;;;;5029634;28;20495;-72
2023/04/05 12:12:42;;;;;;;13.03;7.83;;;10.60;6.10;;;;;;5028197;28;20425;-72
2023/04/05 12:15:12;;;;;;;14.48;9.10;;;10.70;5.80;;;;;;5024935;28;20385;-72
2023/04/05 12:17:42;;;;;;;14.18;8.45;;;10.80;5.90;;;;;;5030486;28;20381;-72
2023/04/05 12:20:09;;;;;;;11.93;8.40;;;10.90;5.90;;;;;;5030173;28;20389;-71
2023/04/05 12:22:36;;;;;;;14.95;8.25;;;10.90;5.60;;;;;;5029621;28;20457;-71
2023/04/05 12:25:03;;;;;;;12.80;8.50;;;10.80;5.30;;;;;;5032738;28;20408;-70
2023/04/05 12:27:29;;;;;;;15.52;9.27;;;10.70;5.50;;;;;;5029673;28;20400;-71
2023/04/05 12:30:09;;;;;;;15.83;9.60;;;10.90;5.80;;;;;;5031889;28;20404;-71
2023/04/05 12:32:39;;;;;;;12.60;8.60;;;11.10;5.30;;;;;;5029605;28;20389;-71
2023/04/05 12:35:06;;;;;;;11.52;8.50;;;11.10;5.50;;;;;;5025093;28;20397;-72
2023/04/05 12:37:34;;;;;;;12.83;8.80;;;11.10;5.10;;;;;;5024567;28;20393;-72
2023/04/05 12:40:04;;;;;;;15.77;8.65;;;11.00;4.70;;;;;;5021557;28;20401;-70
2023/04/05 12:42:34;;;;;;;13.82;8.23;;;11.00;3.70;;;;;;5023058;28;20424;-72
2023/04/05 12:45:11;;;;;;;13.20;8.70;;;10.80;3.80;;;;;;5022241;28;20453;-71
2023/04/05 12:47:50;;;;;;;11.43;8.30;;;10.70;3.50;;;;;;5021225;28;20389;-71
2023/04/05 12:50:17;;;;;;;13.07;8.88;;;10.90;3.80;;;;;;5021755;28;20404;-72
2023/04/05 12:52:57;;;;;;;13.55;8.20;;;11.10;3.50;;;;;;5027778;28;20393;-71
2023/04/05 12:55:23;;;;;;;10.93;8.50;;;11.00;3.30;;;;;;5026378;28;20385;-72